Time;durP1;ratioP1;P1;durP2;ratioP2;P2;SDS_P1;SDS_P2;PMS_P1;PMS_P2;Temp;Humidity;BMP_temperature;BMP_pressure;BME280_temperature;BME280_humidity;BME280_pressure;Samples;Min_cycle;Max_cycle;Signal;HPM_P1;HPM_P2
2021/12/28 00:00:18;;;;;;;7.40;4.22;;;3.40;99.90;;;;;;5065572;28;20033;-80
2021/12/28 00:02:46;;;;;;;4.60;3.35;;;3.40;99.90;;;;;;5046452;28;20428;-79
2021/12/28 00:05:13;;;;;;;5.32;4.03;;;3.60;99.90;;;;;;5047923;28;20040;-80
2021/12/28 00:07:39;;;;;;;7.28;5.00;;;3.50;99.90;;;;;;5047630;28;20123;-80
2021/12/28 00:10:07;;;;;;;5.10;4.10;;;3.50;99.90;;;;;;5047287;28;20087;-81
2021/12/28 00:12:35;;;;;;;7.22;4.72;;;3.50;99.90;;;;;;5047381;28;20049;-80
2021/12/28 00:15:05;;;;;;;8.38;4.35;;;3.60;99.90;;;;;;5045080;28;20052;-80
2021/12/28 00:20:16;;;;;;;7.07;4.72;;;3.60;99.90;;;;;;5056849;28;20881;-81
2021/12/28 00:22:42;;;;;;;4.30;3.78;;;3.70;99.90;;;;;;5045925;28;20076;-81
2021/12/28 00:25:10;;;;;;;4.32;3.28;;;3.60;99.90;;;;;;5037163;28;20049;-81
2021/12/28 00:27:36;;;;;;;6.30;3.60;;;3.70;99.90;;;;;;5034519;28;20661;-81
2021/12/28 00:30:03;;;;;;;6.68;4.45;;;3.70;99.90;;;;;;5047218;28;20048;-81
2021/12/28 00:32:29;;;;;;;7.30;4.00;;;3.70;99.90;;;;;;5048616;28;20049;-81
2021/12/28 00:34:54;;;;;;;9.10;4.45;;;3.90;99.90;;;;;;5030241;28;20048;-81
2021/12/28 00:37:20;;;;;;;5.25;4.57;;;3.70;99.90;;;;;;5047469;28;20407;-81
2021/12/28 00:39:46;;;;;;;6.05;4.35;;;3.80;99.90;;;;;;5045911;28;20048;-81
2021/12/28 00:42:13;;;;;;;5.13;4.63;;;3.70;99.90;;;;;;5025613;28;20073;-81
2021/12/28 00:44:39;;;;;;;9.38;3.88;;;3.70;99.90;;;;;;5067420;28;20037;-81
2021/12/28 00:47:05;;;;;;;4.60;4.00;;;3.70;99.90;;;;;;5043830;28;20534;-80
2021/12/28 00:49:30;;;;;;;8.77;5.40;;;3.60;99.90;;;;;;5040537;28;20053;-80
2021/12/28 00:51:56;;;;;;;5.50;3.58;;;3.60;99.90;;;;;;5031335;28;20049;-79
2021/12/28 00:54:22;;;;;;;7.03;4.20;;;3.60;99.90;;;;;;5046154;28;20646;-80
2021/12/28 00:56:48;;;;;;;8.60;4.38;;;3.60;99.90;;;;;;5047791;28;20119;-82
2021/12/28 00:59:14;;;;;;;7.50;3.75;;;3.70;99.90;;;;;;5035390;28;20041;-79
2021/12/28 01:01:40;;;;;;;7.00;4.50;;;3.70;99.90;;;;;;5044758;28;20044;-81
2021/12/28 01:04:05;;;;;;;4.53;3.72;;;3.60;99.90;;;;;;5022072;28;20528;-81
2021/12/28 01:06:31;;;;;;;11.02;5.65;;;3.60;99.90;;;;;;5035536;28;20147;-83
2021/12/28 01:08:57;;;;;;;16.83;4.20;;;3.60;99.90;;;;;;5075691;28;20048;-82
2021/12/28 01:11:23;;;;;;;5.43;3.65;;;3.50;99.90;;;;;;5022690;28;20041;-82
2021/12/28 01:13:48;;;;;;;7.75;5.53;;;3.50;99.90;;;;;;5030253;28;20124;-79
2021/12/28 01:16:15;;;;;;;6.60;4.68;;;3.50;99.90;;;;;;5047083;28;20090;-80
2021/12/28 01:18:41;;;;;;;;;;;3.50;99.90;;;;;;5045875;28;20057;-82
2021/12/28 01:21:07;;;;;;;5.63;4.43;;;3.50;99.90;;;;;;5030122;28;19923;-80
2021/12/28 01:23:33;;;;;;;7.32;5.13;;;3.50;99.90;;;;;;5049359;28;20123;-82
2021/12/28 01:25:59;;;;;;;5.95;4.47;;;3.50;99.90;;;;;;5053337;28;20104;-78
2021/12/28 01:28:25;;;;;;;7.15;4.97;;;3.60;99.90;;;;;;5055184;28;20048;-81
2021/12/28 01:30:51;;;;;;;4.00;3.15;;;3.60;99.90;;;;;;5047721;28;20430;-79
2021/12/28 01:33:17;;;;;;;7.78;4.80;;;3.60;99.90;;;;;;5050355;28;20083;-81
2021/12/28 01:35:43;;;;;;;6.28;4.45;;;3.70;99.90;;;;;;5050785;28;20037;-81
2021/12/28 01:38:09;;;;;;;6.97;4.97;;;3.60;99.90;;;;;;5047253;28;20033;-79
2021/12/28 01:40:36;;;;;;;;;;;3.60;99.90;;;;;;5048405;28;20049;-78
2021/12/28 01:43:08;;;;;;;6.22;4.22;;;3.60;99.90;;;;;;5052681;28;19916;-77
2021/12/28 01:45:36;;;;;;;10.38;4.43;;;3.50;99.90;;;;;;5036593;28;20048;-79
2021/12/28 01:48:03;;;;;;;5.93;4.78;;;3.60;99.90;;;;;;5023436;28;20051;-78
2021/12/28 01:50:28;;;;;;;4.32;3.92;;;3.50;99.90;;;;;;5051811;28;20098;-80
2021/12/28 01:52:54;;;;;;;9.55;5.72;;;3.50;99.90;;;;;;5051486;28;20045;-80
2021/12/28 01:55:21;;;;;;;4.47;4.07;;;3.50;99.90;;;;;;5052085;28;20036;-78
2021/12/28 01:57:46;;;;;;;;;;;3.50;99.90;;;;;;5036271;28;20383;-79
2021/12/28 02:00:12;;;;;;;5.07;4.57;;;3.50;99.90;;;;;;5030615;28;19924;-80
2021/12/28 02:02:38;;;;;;;4.65;4.07;;;3.50;99.90;;;;;;5064359;28;20124;-78
2021/12/28 02:05:04;;;;;;;8.95;5.18;;;3.60;99.90;;;;;;5047184;28;20196;-80
2021/12/28 02:07:30;;;;;;;6.63;3.65;;;3.50;99.90;;;;;;5052747;28;20411;-77
2021/12/28 02:09:55;;;;;;;8.15;4.25;;;3.50;99.90;;;;;;5040710;28;20142;-78
2021/12/28 02:12:22;;;;;;;7.13;3.47;;;3.50;99.90;;;;;;5052178;28;20139;-77
2021/12/28 02:14:48;;;;;;;6.60;4.05;;;3.60;99.90;;;;;;5043233;28;20486;-79
2021/12/28 02:17:14;;;;;;;9.82;5.25;;;3.50;99.90;;;;;;5053529;28;20049;-78
2021/12/28 02:19:43;;;;;;;7.97;4.45;;;3.50;99.90;;;;;;5051285;28;20509;-79
2021/12/28 02:22:08;;;;;;;15.90;7.53;;;3.50;99.90;;;;;;5053243;28;20543;-78
2021/12/28 02:24:34;;;;;;;6.47;4.32;;;3.50;99.90;;;;;;5032680;28;20049;-78
2021/12/28 02:27:00;;;;;;;11.38;5.10;;;3.50;99.90;;;;;;5048520;28;20045;-80
2021/12/28 02:29:26;;;;;;;6.20;4.57;;;3.50;99.90;;;;;;5030519;28;20558;-78
2021/12/28 02:31:55;;;;;;;5.97;3.85;;;3.50;99.90;;;;;;5051562;28;20041;-78
2021/12/28 02:34:25;;;;;;;8.95;5.97;;;3.60;99.90;;;;;;5033161;28;20045;-79
2021/12/28 02:36:51;;;;;;;8.43;5.43;;;3.60;99.90;;;;;;5048738;28;20046;-80
2021/12/28 02:39:18;;;;;;;10.25;4.43;;;3.60;99.90;;;;;;5047078;28;20048;-80
2021/12/28 02:41:43;;;;;;;9.32;5.72;;;3.60;99.90;;;;;;5051745;28;20044;-80
2021/12/28 02:44:09;;;;;;;11.77;5.57;;;3.80;99.90;;;;;;5050008;28;20055;-78
2021/12/28 02:46:35;;;;;;;7.53;4.53;;;3.70;99.90;;;;;;5052195;28;20038;-79
2021/12/28 02:49:01;;;;;;;8.63;4.05;;;3.70;99.90;;;;;;5051097;28;20045;-80
2021/12/28 02:51:28;;;;;;;9.07;4.55;;;3.70;99.90;;;;;;5045973;28;20041;-78
2021/12/28 02:53:53;;;;;;;;;;;3.70;99.90;;;;;;5041086;28;20073;-80
2021/12/28 02:56:20;;;;;;;5.43;4.50;;;3.70;99.90;;;;;;5051894;28;19974;-78
2021/12/28 02:58:50;;;;;;;7.93;5.57;;;3.80;99.90;;;;;;5049454;28;20041;-77
2021/12/28 03:01:29;;;;;;;6.70;4.47;;;3.70;99.90;;;;;;5035208;28;20546;-79
2021/12/28 03:04:04;;;;;;;12.43;5.18;;;3.70;99.90;;;;;;5050469;28;20040;-79
2021/12/28 03:06:30;;;;;;;11.88;5.80;;;3.70;99.90;;;;;;5050292;28;20071;-78
2021/12/28 03:08:58;;;;;;;10.40;5.85;;;3.70;99.90;;;;;;5031953;28;20041;-78
2021/12/28 03:11:26;;;;;;;8.52;5.90;;;3.70;99.90;;;;;;5032808;28;20044;-79
2021/12/28 03:13:54;;;;;;;7.20;5.68;;;3.90;99.90;;;;;;5030207;28;20481;-79
2021/12/28 03:16:22;;;;;;;12.85;6.47;;;3.80;99.90;;;;;;5046610;28;20124;-80
2021/12/28 03:18:48;;;;;;;9.68;4.38;;;3.80;99.90;;;;;;5047190;28;20080;-79
2021/12/28 03:21:15;;;;;;;;;;;3.80;99.90;;;;;;5047466;28;20048;-78
2021/12/28 03:23:41;;;;;;;8.80;5.18;;;3.80;99.90;;;;;;5058350;28;19924;-77
2021/12/28 03:26:08;;;;;;;12.60;6.22;;;3.80;99.90;;;;;;5041726;28;20053;-79
2021/12/28 03:28:38;;;;;;;14.00;6.97;;;3.80;99.90;;;;;;5048632;28;20056;-78
2021/12/28 03:31:07;;;;;;;10.52;6.82;;;3.80;99.90;;;;;;5039598;28;20163;-79
2021/12/28 03:33:35;;;;;;;8.70;5.88;;;3.80;99.90;;;;;;5049057;28;20053;-78
2021/12/28 03:36:02;;;;;;;6.65;5.32;;;4.00;99.90;;;;;;5045365;28;20060;-78
2021/12/28 03:38:28;;;;;;;17.88;6.97;;;4.00;99.90;;;;;;5046664;28;20041;-78
2021/12/28 03:40:54;;;;;;;10.75;6.53;;;4.10;99.90;;;;;;5048409;28;20043;-78
2021/12/28 03:43:21;;;;;;;13.13;5.22;;;4.10;99.90;;;;;;5041951;28;20136;-78
2021/12/28 03:45:47;;;;;;;6.70;5.35;;;4.00;99.90;;;;;;5048610;28;20103;-79
2021/12/28 03:48:13;;;;;;;5.53;4.97;;;4.10;99.90;;;;;;5039980;28;20363;-80
2021/12/28 03:50:39;;;;;;;10.70;6.82;;;4.30;99.90;;;;;;5048083;28;20048;-79
2021/12/28 03:53:06;;;;;;;14.48;6.20;;;4.10;99.90;;;;;;5035816;28;20047;-78
2021/12/28 03:55:32;;;;;;;8.40;5.72;;;4.10;99.90;;;;;;5054201;28;20600;-79
2021/12/28 03:58:00;;;;;;;7.32;5.47;;;4.10;99.90;;;;;;5028862;28;20596;-78
2021/12/28 04:00:38;;;;;;;7.22;6.32;;;4.20;99.90;;;;;;5014348;28;20045;-80
2021/12/28 04:03:03;;;;;;;11.65;6.75;;;4.10;99.90;;;;;;5046054;28;20128;-80
2021/12/28 04:05:29;;;;;;;6.57;4.72;;;4.20;99.90;;;;;;5051852;28;20127;-78
2021/12/28 04:07:55;;;;;;;;;;;4.20;99.90;;;;;;5035946;28;20078;-79
2021/12/28 04:10:29;;;;;;;8.57;5.85;;;4.30;99.90;;;;;;5049351;28;19921;-78
2021/12/28 04:12:56;;;;;;;13.95;5.55;;;4.20;99.90;;;;;;5043410;28;20103;-80
2021/12/28 04:15:22;;;;;;;11.00;5.38;;;4.20;99.90;;;;;;5033186;28;20458;-79
2021/12/28 04:17:48;;;;;;;10.50;4.85;;;4.20;99.90;;;;;;5028980;28;20061;-78
2021/12/28 04:20:17;;;;;;;9.93;6.65;;;4.20;99.90;;;;;;5049104;28;20057;-79
2021/12/28 04:22:43;;;;;;;10.35;6.35;;;4.30;99.90;;;;;;5048533;28;20084;-78
2021/12/28 04:25:11;;;;;;;11.43;5.18;;;4.20;99.90;;;;;;5048740;28;20072;-79
2021/12/28 04:27:37;;;;;;;12.63;6.00;;;4.20;99.90;;;;;;5049227;28;20060;-79
2021/12/28 04:30:05;;;;;;;;;;;4.40;99.90;;;;;;5026241;28;20136;-78
2021/12/28 04:32:30;;;;;;;;;;;4.20;99.90;;;;;;5046988;28;20368;-79
2021/12/28 04:34:56;;;;;;;6.25;5.65;;;4.30;99.90;;;;;;5048631;28;19995;-78
2021/12/28 04:37:22;;;;;;;9.70;6.95;;;4.20;99.90;;;;;;5049124;28;20063;-80
2021/12/28 04:39:47;;;;;;;11.55;6.43;;;4.30;99.90;;;;;;5066541;28;20421;-79
2021/12/28 04:42:13;;;;;;;13.82;7.10;;;4.30;99.90;;;;;;5040819;28;20044;-78
2021/12/28 04:44:39;;;;;;;7.25;4.85;;;4.30;99.90;;;;;;5036823;28;20120;-77
2021/12/28 04:47:05;;;;;;;21.40;5.75;;;4.30;99.90;;;;;;5023638;28;20144;-79
2021/12/28 04:49:31;;;;;;;23.58;5.53;;;4.30;99.90;;;;;;5031363;28;20049;-79
2021/12/28 04:51:57;;;;;;;8.68;5.07;;;4.30;99.90;;;;;;5049219;28;20052;-78
2021/12/28 04:54:23;;;;;;;15.82;7.18;;;4.30;99.90;;;;;;5048730;28;20040;-79
2021/12/28 04:56:49;;;;;;;8.75;6.57;;;4.30;99.90;;;;;;5048554;28;20371;-78
2021/12/28 04:59:17;;;;;;;9.55;5.38;;;4.30;99.90;;;;;;5043935;28;20045;-79
2021/12/28 05:01:43;;;;;;;29.88;6.68;;;4.30;99.90;;;;;;5050399;28;20046;-79
2021/12/28 05:04:09;;;;;;;9.23;6.18;;;4.30;99.90;;;;;;5052857;28;20064;-78
2021/12/28 05:06:36;;;;;;;18.23;6.47;;;4.30;99.90;;;;;;5053862;28;20051;-77
2021/12/28 05:09:04;;;;;;;13.48;7.63;;;4.30;99.90;;;;;;5058321;28;20052;-78
2021/12/28 05:11:31;;;;;;;17.95;6.95;;;4.40;99.90;;;;;;5052679;28;20061;-79
2021/12/28 05:13:57;;;;;;;12.77;7.70;;;4.40;99.90;;;;;;5052210;28;20493;-79
2021/12/28 05:16:28;;;;;;;9.40;5.35;;;4.40;99.90;;;;;;5047818;28;20041;-79
2021/12/28 05:18:54;;;;;;;13.57;8.73;;;4.50;99.90;;;;;;5037420;28;20064;-78
2021/12/28 05:21:19;;;;;;;16.38;6.40;;;4.70;99.90;;;;;;5037314;28;20053;-78
2021/12/28 05:23:45;;;;;;;8.93;7.63;;;4.50;99.90;;;;;;5053751;28;20118;-79
2021/12/28 05:26:11;;;;;;;11.32;6.80;;;4.50;99.90;;;;;;5036076;28;20052;-79
2021/12/28 05:28:37;;;;;;;10.18;6.85;;;4.60;99.90;;;;;;5041140;28;20041;-78
2021/12/28 05:31:03;;;;;;;8.70;5.35;;;4.60;99.90;;;;;;5052315;28;20045;-79
2021/12/28 05:33:28;;;;;;;14.60;7.68;;;4.60;99.90;;;;;;5050655;28;20089;-78
2021/12/28 05:35:54;;;;;;;13.70;6.05;;;4.60;99.90;;;;;;5047204;28;20041;-78
2021/12/28 05:38:20;;;;;;;7.80;5.65;;;4.80;99.90;;;;;;5049830;28;20053;-78
2021/12/28 05:40:46;;;;;;;15.15;7.03;;;4.70;99.90;;;;;;5051173;28;20094;-78
2021/12/28 05:43:13;;;;;;;13.50;6.45;;;4.70;99.90;;;;;;5034908;28;20134;-79
2021/12/28 05:45:40;;;;;;;15.35;6.57;;;4.70;99.90;;;;;;5052098;28;20053;-79
2021/12/28 05:48:05;;;;;;;10.55;7.15;;;4.80;99.90;;;;;;5051054;28;20131;-79
2021/12/28 05:50:31;;;;;;;10.15;6.43;;;4.80;99.90;;;;;;5050330;28;20129;-78
2021/12/28 05:52:57;;;;;;;9.73;6.35;;;4.80;99.90;;;;;;5069667;28;20060;-78
2021/12/28 05:55:23;;;;;;;12.23;6.47;;;4.80;99.90;;;;;;5044418;28;20045;-78
2021/12/28 05:57:49;;;;;;;13.18;5.93;;;4.80;99.90;;;;;;5088782;28;20044;-79
2021/12/28 06:00:16;;;;;;;11.40;6.38;;;4.80;99.90;;;;;;5041598;28;20079;-78
2021/12/28 06:02:42;;;;;;;13.02;7.50;;;4.80;99.90;;;;;;5052430;28;20044;-78
2021/12/28 06:05:08;;;;;;;12.00;6.85;;;4.80;99.90;;;;;;5025503;28;20037;-78
2021/12/28 06:07:33;;;;;;;;;;;4.70;99.90;;;;;;5052935;28;20052;-79
2021/12/28 06:09:59;;;;;;;9.48;5.72;;;4.70;99.90;;;;;;5048268;28;19931;-79
2021/12/28 06:12:25;;;;;;;11.38;7.50;;;4.70;99.90;;;;;;5050976;28;20045;-79
2021/12/28 06:14:52;;;;;;;12.65;7.50;;;4.70;99.90;;;;;;5050111;28;20056;-79
2021/12/28 06:17:18;;;;;;;9.25;5.78;;;4.70;99.90;;;;;;5048731;28;20063;-79
2021/12/28 06:19:44;;;;;;;;;;;4.70;99.90;;;;;;5051198;28;20048;-79
2021/12/28 06:22:09;;;;;;;14.98;7.40;;;4.70;99.90;;;;;;5071689;28;20251;-79
2021/12/28 06:24:35;;;;;;;7.70;5.07;;;4.70;99.90;;;;;;5053052;28;20053;-79
2021/12/28 06:27:01;;;;;;;12.75;6.65;;;4.70;99.90;;;;;;5052430;28;20091;-79
2021/12/28 06:29:27;;;;;;;25.70;6.10;;;4.70;99.90;;;;;;5053149;28;20045;-79
2021/12/28 06:31:55;;;;;;;11.88;5.30;;;4.70;99.90;;;;;;5041036;28;20053;-79
2021/12/28 06:34:21;;;;;;;7.93;6.47;;;4.70;99.90;;;;;;5026269;28;20034;-79
2021/12/28 06:36:47;;;;;;;7.70;4.85;;;4.70;99.90;;;;;;5042107;28;20041;-80
2021/12/28 06:39:13;;;;;;;8.90;6.38;;;4.60;99.90;;;;;;5051166;28;20048;-79
2021/12/28 06:41:39;;;;;;;16.35;6.15;;;4.60;99.90;;;;;;5042927;28;20084;-78
2021/12/28 06:44:09;;;;;;;9.68;5.57;;;4.60;99.90;;;;;;5072735;28;20548;-79
2021/12/28 06:46:36;;;;;;;10.95;6.85;;;4.60;99.90;;;;;;5041469;28;20498;-79
2021/12/28 06:49:03;;;;;;;15.05;7.30;;;4.60;99.90;;;;;;5046095;28;20045;-78
2021/12/28 06:51:29;;;;;;;10.02;4.57;;;4.60;99.90;;;;;;5043072;28;20445;-80
2021/12/28 06:53:54;;;;;;;8.57;6.20;;;4.70;99.90;;;;;;5050750;28;20075;-79
2021/12/28 06:56:20;;;;;;;7.97;4.93;;;4.60;99.90;;;;;;5074821;28;20084;-79
2021/12/28 06:58:46;;;;;;;12.05;6.88;;;4.60;99.90;;;;;;5047335;28;20041;-79
2021/12/28 07:01:12;;;;;;;7.57;5.32;;;4.60;99.90;;;;;;5047452;28;20048;-79
2021/12/28 07:03:37;;;;;;;7.75;4.93;;;4.60;99.90;;;;;;5046363;28;20084;-78
2021/12/28 07:06:03;;;;;;;12.23;6.60;;;4.70;99.90;;;;;;5049815;28;20560;-77
2021/12/28 07:08:29;;;;;;;14.45;5.68;;;4.70;99.90;;;;;;5050684;28;20044;-77
2021/12/28 07:10:55;;;;;;;7.25;5.85;;;4.70;99.90;;;;;;5029552;28;20493;-78
2021/12/28 07:13:21;;;;;;;15.20;6.22;;;4.60;99.90;;;;;;5047349;28;20086;-78
2021/12/28 07:15:47;;;;;;;10.43;7.13;;;4.70;99.90;;;;;;5045474;28;20327;-78
2021/12/28 07:18:14;;;;;;;8.60;4.53;;;4.60;99.90;;;;;;5046994;28;20049;-78
2021/12/28 07:20:39;;;;;;;9.93;5.32;;;4.60;99.90;;;;;;5029801;28;20041;-78
2021/12/28 07:23:05;;;;;;;11.75;8.18;;;4.60;99.90;;;;;;5026196;28;20106;-77
2021/12/28 07:25:31;;;;;;;11.75;7.75;;;4.60;99.90;;;;;;5045355;28;20049;-78
2021/12/28 07:27:57;;;;;;;9.73;5.03;;;4.70;99.90;;;;;;5045566;28;20839;-77
2021/12/28 07:30:23;;;;;;;12.10;6.78;;;4.50;99.90;;;;;;5030018;28;20053;-78
2021/12/28 07:32:48;;;;;;;12.18;7.03;;;4.50;99.90;;;;;;5045930;28;20569;-78
2021/12/28 07:35:14;;;;;;;11.00;6.15;;;4.50;99.90;;;;;;5033109;28;20438;-78
2021/12/28 07:37:40;;;;;;;9.80;5.78;;;4.50;99.90;;;;;;5032841;28;20049;-79
2021/12/28 07:40:08;;;;;;;8.57;4.28;;;4.50;99.90;;;;;;5042129;28;20037;-78
2021/12/28 07:42:35;;;;;;;9.65;5.78;;;4.50;99.90;;;;;;5047043;28;20178;-79
2021/12/28 07:45:06;;;;;;;9.82;5.38;;;4.50;99.90;;;;;;5051393;28;20053;-78
2021/12/28 07:47:31;;;;;;;8.88;4.35;;;4.50;99.90;;;;;;5052217;28;20096;-78
2021/12/28 07:49:57;;;;;;;10.50;5.32;;;4.50;99.90;;;;;;5051168;28;20181;-78
2021/12/28 07:52:23;;;;;;;17.33;6.07;;;4.50;99.90;;;;;;5043871;28;20204;-79
2021/12/28 07:54:48;;;;;;;8.30;3.70;;;4.50;99.90;;;;;;5044719;28;20358;-78
2021/12/28 07:57:14;;;;;;;8.52;5.93;;;4.50;99.90;;;;;;5050309;28;20033;-76
2021/12/28 07:59:40;;;;;;;8.07;5.75;;;4.70;99.90;;;;;;5048276;28;20033;-78
2021/12/28 08:02:06;;;;;;;12.38;5.63;;;4.60;99.90;;;;;;5046968;28;20083;-78
2021/12/28 08:04:31;;;;;;;7.68;5.80;;;4.60;99.90;;;;;;5050945;28;20041;-78
2021/12/28 08:06:57;;;;;;;12.20;5.57;;;4.60;99.90;;;;;;5048716;28;20379;-78
2021/12/28 08:09:23;;;;;;;6.88;6.15;;;4.60;99.90;;;;;;5049092;28;20045;-78
2021/12/28 08:11:49;;;;;;;;;;;4.60;99.90;;;;;;5046343;28;20041;-78
2021/12/28 08:14:15;;;;;;;8.68;4.60;;;4.60;99.90;;;;;;5029909;28;19975;-77
2021/12/28 08:16:41;;;;;;;11.77;6.35;;;4.50;99.90;;;;;;5044526;28;20040;-76
2021/12/28 08:19:08;;;;;;;5.28;4.03;;;4.50;99.90;;;;;;5045894;28;20076;-77
2021/12/28 08:21:34;;;;;;;6.05;4.40;;;4.40;99.90;;;;;;5050073;28;20041;-78
2021/12/28 08:24:00;;;;;;;8.43;5.28;;;4.40;99.90;;;;;;5036959;28;20048;-78
2021/12/28 08:26:26;;;;;;;5.70;3.55;;;4.40;99.90;;;;;;5049060;28;20064;-78
2021/12/28 08:28:52;;;;;;;13.48;6.85;;;4.40;99.90;;;;;;5049891;28;20049;-77
2021/12/28 08:31:20;;;;;;;6.57;4.20;;;4.40;99.90;;;;;;5066320;28;20047;-80
2021/12/28 08:34:19;;;;;;;5.22;4.30;;;4.40;99.90;;;;;;5015856;28;20529;-80
2021/12/28 08:36:54;;;;;;;7.05;3.78;;;4.30;99.90;;;;;;5038102;28;20051;-80
2021/12/28 08:39:20;;;;;;;12.45;4.30;;;4.30;99.90;;;;;;5042466;28;20045;-79
2021/12/28 08:41:46;;;;;;;5.50;2.67;;;4.30;99.90;;;;;;5041726;28;20041;-78
2021/12/28 08:44:11;;;;;;;9.15;3.08;;;4.30;99.90;;;;;;5047562;28;20120;-80
2021/12/28 08:46:39;;;;;;;8.35;4.47;;;4.40;99.90;;;;;;5040861;28;20033;-79
2021/12/28 08:49:05;;;;;;;7.18;3.40;;;4.40;99.90;;;;;;5045969;28;20040;-79
2021/12/28 08:51:31;;;;;;;5.03;2.95;;;4.50;99.90;;;;;;5047885;28;20422;-78
2021/12/28 08:53:57;;;;;;;6.45;4.07;;;4.60;99.90;;;;;;5048533;28;20124;-79
2021/12/28 08:56:23;;;;;;;9.40;4.70;;;4.60;99.90;;;;;;5050211;28;20461;-78
2021/12/28 08:58:50;;;;;;;;;;;4.60;99.90;;;;;;5049312;28;20470;-79
2021/12/28 09:01:16;;;;;;;5.45;2.20;;;4.60;99.90;;;;;;5022699;28;19963;-78
2021/12/28 09:03:42;;;;;;;4.32;3.55;;;4.60;99.90;;;;;;5031394;28;20044;-78
2021/12/28 09:06:07;;;;;;;5.30;3.08;;;4.60;99.90;;;;;;5043992;28;20091;-79
2021/12/28 09:08:33;;;;;;;9.27;4.00;;;4.70;99.90;;;;;;5040178;28;20048;-78
2021/12/28 09:10:59;;;;;;;5.63;3.95;;;4.80;99.90;;;;;;5049682;28;20144;-78
2021/12/28 09:13:25;;;;;;;7.65;3.65;;;4.80;99.90;;;;;;5048305;28;20052;-78
2021/12/28 09:15:51;;;;;;;5.07;3.33;;;4.80;99.90;;;;;;5047257;28;20049;-78
2021/12/28 09:18:16;;;;;;;5.30;4.40;;;4.80;99.90;;;;;;5042460;28;20059;-78
2021/12/28 09:20:43;;;;;;;4.00;3.28;;;4.90;99.90;;;;;;5050470;28;20059;-78
2021/12/28 09:23:11;;;;;;;8.23;2.97;;;5.00;99.90;;;;;;5031517;28;20041;-79
2021/12/28 09:25:39;;;;;;;5.13;3.85;;;4.90;99.90;;;;;;5038408;28;20131;-78
2021/12/28 09:28:07;;;;;;;5.45;3.42;;;4.90;99.90;;;;;;5028015;28;20049;-78
2021/12/28 09:30:33;;;;;;;6.95;4.13;;;5.00;99.90;;;;;;5047828;28;20079;-79
2021/12/28 09:32:59;;;;;;;4.68;2.83;;;5.00;99.90;;;;;;5057380;28;20040;-79
2021/12/28 09:35:25;;;;;;;6.90;2.70;;;5.00;99.90;;;;;;5046158;28;20274;-80
2021/12/28 09:37:50;;;;;;;3.63;3.20;;;5.10;99.90;;;;;;5039605;28;20075;-76
2021/12/28 09:40:16;;;;;;;6.10;3.25;;;5.10;99.90;;;;;;5027328;28;20051;-77
2021/12/28 09:42:43;;;;;;;3.70;2.47;;;5.10;99.90;;;;;;5064451;28;20060;-76
2021/12/28 09:45:11;;;;;;;6.20;3.08;;;5.10;99.90;;;;;;5060161;28;20056;-77
2021/12/28 09:47:37;;;;;;;5.47;2.47;;;5.20;99.90;;;;;;5052610;28;20401;-77
2021/12/28 09:50:05;;;;;;;4.47;3.42;;;5.40;99.90;;;;;;5050298;28;20045;-77
2021/12/28 09:52:31;;;;;;;5.97;2.97;;;5.30;99.90;;;;;;5049731;28;20034;-77
2021/12/28 09:54:56;;;;;;;3.78;2.92;;;5.40;99.90;;;;;;5051710;28;20037;-77
2021/12/28 09:57:22;;;;;;;5.32;2.47;;;5.40;99.90;;;;;;5049844;28;20467;-77
2021/12/28 09:59:48;;;;;;;4.40;3.60;;;5.50;99.90;;;;;;5048440;28;20053;-78
2021/12/28 10:02:15;;;;;;;5.30;2.97;;;5.50;99.90;;;;;;5032680;28;20033;-78
2021/12/28 10:04:58;;;;;;;3.40;2.78;;;5.50;99.90;;;;;;5045885;28;20398;-79
2021/12/28 10:07:26;;;;;;;5.90;3.35;;;5.50;99.90;;;;;;5058928;28;20045;-78
2021/12/28 10:09:53;;;;;;;4.13;3.00;;;5.50;99.90;;;;;;5048056;28;20057;-79
2021/12/28 10:12:42;;;;;;;19.90;4.05;;;5.50;99.90;;;;;;5043627;28;20047;-79
2021/12/28 10:15:15;;;;;;;5.20;3.38;;;5.50;99.90;;;;;;5045819;28;20041;-79
2021/12/28 10:17:43;;;;;;;2.75;2.47;;;5.70;99.90;;;;;;5031540;28;20057;-78
2021/12/28 10:20:23;;;;;;;4.07;2.85;;;5.60;99.90;;;;;;5052004;28;20045;-78
2021/12/28 10:23:03;;;;;;;3.40;2.55;;;5.70;99.90;;;;;;5046517;28;20052;-80
2021/12/28 10:25:32;;;;;;;3.28;2.80;;;5.70;99.90;;;;;;5045969;28;20131;-78
2021/12/28 10:28:03;;;;;;;7.10;3.40;;;5.80;99.90;;;;;;5050614;28;20045;-79
2021/12/28 10:30:32;;;;;;;4.38;2.90;;;5.80;99.90;;;;;;5048261;28;20068;-78
2021/12/28 10:33:05;;;;;;;2.55;1.65;;;5.90;99.90;;;;;;5053013;28;20047;-79
2021/12/28 10:35:52;;;;;;;3.83;2.38;;;6.00;99.90;;;;;;5044871;28;20167;-78
2021/12/28 10:38:19;;;;;;;;;;;6.00;99.90;;;;;;5047701;28;20041;-78
2021/12/28 10:40:49;;;;;;;5.13;2.88;;;6.00;99.90;;;;;;5061069;28;20289;-78
2021/12/28 10:43:17;;;;;;;3.55;3.08;;;6.10;99.90;;;;;;5069138;28;20055;-78
2021/12/28 10:46:01;;;;;;;11.85;3.45;;;6.10;99.90;;;;;;5024993;28;20135;-79
2021/12/28 10:48:31;;;;;;;3.28;2.40;;;6.20;99.90;;;;;;5057961;28;20179;-78
2021/12/28 10:51:03;;;;;;;3.08;2.00;;;6.20;99.90;;;;;;5043028;28;20052;-80
2021/12/28 10:54:07;;;;;;;3.22;2.92;;;6.10;99.90;;;;;;5051145;28;20049;-80
2021/12/28 10:56:49;;;;;;;4.13;2.72;;;6.20;99.90;;;;;;5022466;28;20040;-78
2021/12/28 10:59:21;;;;;;;2.58;2.03;;;6.20;99.90;;;;;;5042688;28;20036;-78
2021/12/28 11:01:48;;;;;;;7.53;4.00;;;5.80;99.90;;;;;;5033979;28;20045;-77
2021/12/28 11:04:14;;;;;;;8.82;2.30;;;6.20;99.90;;;;;;5050593;28;20510;-80
2021/12/28 11:06:46;;;;;;;2.85;2.10;;;6.20;99.90;;;;;;5040120;28;20047;-78
2021/12/28 11:09:18;;;;;;;2.50;2.28;;;6.30;99.90;;;;;;5050954;28;20052;-77
2021/12/28 11:11:44;;;;;;;8.38;2.63;;;6.30;99.90;;;;;;5041128;28;20064;-79
2021/12/28 11:14:17;;;;;;;9.18;2.35;;;6.20;99.90;;;;;;5030376;28;20049;-78
2021/12/28 11:16:56;;;;;;;3.33;2.35;;;6.20;99.90;;;;;;5040166;28;20056;-79
2021/12/28 11:19:25;;;;;;;4.90;2.70;;;6.20;99.90;;;;;;5045347;28;20390;-80
2021/12/28 11:21:53;;;;;;;4.10;2.22;;;6.20;99.90;;;;;;5026540;28;20069;-78
2021/12/28 11:24:19;;;;;;;14.90;3.45;;;6.40;99.90;;;;;;5072924;28;20057;-78
2021/12/28 11:26:49;;;;;;;;;;;6.20;99.90;;;;;;5047798;28;20052;-78
2021/12/28 11:29:27;;;;;;;4.07;2.08;;;6.30;99.90;;;;;;5045637;28;19917;-79
2021/12/28 11:31:57;;;;;;;3.60;2.15;;;6.30;99.90;;;;;;5056772;28;20045;-81
2021/12/28 11:34:24;;;;;;;7.40;2.83;;;6.30;99.90;;;;;;5048677;28;20114;-81
2021/12/28 11:36:53;;;;;;;4.70;2.67;;;6.30;99.90;;;;;;5030343;28;20044;-82
2021/12/28 11:39:24;;;;;;;5.78;3.08;;;6.40;99.90;;;;;;5046253;28;20049;-81
2021/12/28 11:41:50;;;;;;;6.68;2.65;;;6.40;99.90;;;;;;5055744;28;20127;-82
2021/12/28 11:44:19;;;;;;;3.78;2.60;;;6.40;99.90;;;;;;5048557;28;20041;-82
2021/12/28 11:46:46;;;;;;;1.88;1.65;;;6.40;99.90;;;;;;5023233;28;20184;-82
2021/12/28 11:49:21;;;;;;;3.10;2.58;;;6.40;99.90;;;;;;5011467;28;20459;-84
2021/12/28 11:51:50;;;;;;;5.45;2.78;;;6.40;99.90;;;;;;5034210;28;20044;-81
2021/12/28 11:54:17;;;;;;;2.90;2.33;;;6.40;99.90;;;;;;5014869;28;20067;-83
2021/12/28 11:56:50;;;;;;;3.15;2.30;;;6.40;99.90;;;;;;5035215;28;20352;-80
2021/12/28 11:59:21;;;;;;;3.30;2.42;;;6.50;99.90;;;;;;5036394;28;20095;-83
2021/12/28 12:01:53;;;;;;;3.60;2.80;;;6.50;99.90;;;;;;5052291;28;20347;-84
2021/12/28 12:04:56;;;;;;;3.45;2.85;;;6.50;99.90;;;;;;5060110;28;20119;-84
2021/12/28 12:07:31;;;;;;;2.90;2.30;;;6.50;99.90;;;;;;5051293;28;20188;-84
2021/12/28 12:10:21;;;;;;;4.10;2.28;;;6.50;99.90;;;;;;5044404;28;20045;-82
2021/12/28 12:13:25;;;;;;;2.90;2.20;;;6.60;99.90;;;;;;5058097;28;20071;-84
2021/12/28 12:16:01;;;;;;;3.65;2.30;;;6.60;99.90;;;;;;5038359;28;20037;-86
2021/12/28 12:18:43;;;;;;;5.00;2.90;;;6.60;99.90;;;;;;5032135;28;20056;-85
2021/12/28 12:21:17;;;;;;;3.17;2.65;;;6.60;99.90;;;;;;5030843;28;20055;-83
2021/12/28 12:23:51;;;;;;;3.08;2.67;;;6.70;99.90;;;;;;5029969;28;20079;-82
2021/12/28 12:26:31;;;;;;;3.90;3.35;;;6.60;99.90;;;;;;5031255;28;20040;-84
2021/12/28 12:28:58;;;;;;;3.90;1.88;;;6.60;99.90;;;;;;5049200;28;20432;-84
2021/12/28 12:31:34;;;;;;;3.97;3.55;;;6.60;99.90;;;;;;5033031;28;20044;-84
2021/12/28 12:34:02;;;;;;;2.90;1.92;;;6.70;99.90;;;;;;5027798;28;20037;-82
2021/12/28 12:36:51;;;;;;;6.13;2.58;;;6.70;99.90;;;;;;5044277;28;20044;-84
2021/12/28 12:39:21;;;;;;;5.10;2.67;;;6.60;99.90;;;;;;5027770;28;20036;-83
2021/12/28 12:41:49;;;;;;;3.25;1.98;;;6.70;99.90;;;;;;5077813;28;22058;-83
2021/12/28 12:44:20;;;;;;;5.43;2.33;;;6.60;99.90;;;;;;5043648;28;20049;-83
2021/12/28 12:46:47;;;;;;;2.63;2.00;;;;;;;;;;5048759;28;20052;-82
2021/12/28 12:49:29;;;;;;;3.30;2.83;;;6.70;99.90;;;;;;5022208;28;20060;-83
2021/12/28 12:51:57;;;;;;;5.45;3.67;;;6.70;99.90;;;;;;5024039;28;20555;-83
2021/12/28 12:54:29;;;;;;;3.30;2.70;;;6.80;99.90;;;;;;5050952;28;20045;-81
2021/12/28 12:56:55;;;;;;;4.18;2.33;;;6.70;99.90;;;;;;5044622;28;20048;-83
2021/12/28 12:59:28;;;;;;;8.60;4.60;;;6.80;99.90;;;;;;5070522;28;20045;-82
2021/12/28 13:01:59;;;;;;;3.47;3.05;;;6.80;99.90;;;;;;5025239;28;20046;-82
2021/12/28 13:04:43;;;;;;;6.20;4.60;;;6.80;99.90;;;;;;5047166;28;20041;-83